createdAt,value
2023-03-22T00:01:36.752Z,7.20
2023-03-22T00:06:44.167Z,7.10
2023-03-22T00:11:54.106Z,8.40
2023-03-22T00:16:57.107Z,6.93
2023-03-22T00:22:03.509Z,8.30
2023-03-22T00:27:24.413Z,7.00
2023-03-22T00:32:57.880Z,6.90
2023-03-22T00:43:42.107Z,6.77
2023-03-22T00:48:45.661Z,6.50
2023-03-22T00:53:50.996Z,6.43
2023-03-22T00:58:53.817Z,7.40
2023-03-22T01:03:59.372Z,7.97
2023-03-22T01:09:04.920Z,7.57
2023-03-22T01:14:09.614Z,7.77
2023-03-22T01:19:12.614Z,7.50
2023-03-22T01:24:19.559Z,7.87
2023-03-22T01:29:23.163Z,6.87
2023-03-22T01:34:31.054Z,7.27
2023-03-22T01:39:40.185Z,7.37
2023-03-22T01:45:20.971Z,7.70
2023-03-22T01:50:30.153Z,6.97
2023-03-22T01:55:35.632Z,7.20
2023-03-22T02:01:01.442Z,6.83
2023-03-22T02:06:27.336Z,7.80
2023-03-22T02:11:43.866Z,7.57
2023-03-22T02:17:20.793Z,7.30
2023-03-22T02:22:58.193Z,8.93
2023-03-22T02:28:18.714Z,7.87
2023-03-22T02:33:41.568Z,8.27
2023-03-22T02:39:16.678Z,8.20
2023-03-22T02:44:27.793Z,7.70
2023-03-22T02:49:38.656Z,8.60
2023-03-22T02:54:50.096Z,8.40
2023-03-22T02:59:56.018Z,7.47
2023-03-22T03:05:02.575Z,7.90
2023-03-22T03:10:08.606Z,6.87
2023-03-22T03:15:16.400Z,7.37
2023-03-22T03:20:34.412Z,7.20
2023-03-22T03:25:44.666Z,6.90
2023-03-22T03:30:54.696Z,7.40
2023-03-22T03:36:02.610Z,6.10
2023-03-22T03:41:10.798Z,6.30
2023-03-22T03:46:17.073Z,5.63
2023-03-22T03:51:20.543Z,6.17
2023-03-22T03:56:25.052Z,6.13
2023-03-22T04:01:29.567Z,5.80
2023-03-22T04:06:54.525Z,5.27
2023-03-22T04:12:01.832Z,5.73
2023-03-22T04:17:05.090Z,5.57
2023-03-22T04:22:14.861Z,5.17
2023-03-22T04:27:22.101Z,6.20
2023-03-22T04:32:38.466Z,6.00
2023-03-22T04:37:43.059Z,5.90
2023-03-22T04:42:57.441Z,4.90
2023-03-22T04:48:22.168Z,5.07
2023-03-22T04:53:27.279Z,5.00
2023-03-22T04:58:38.704Z,5.30
2023-03-22T05:03:45.460Z,4.83
2023-03-22T05:08:48.679Z,4.50
2023-03-22T05:13:54.010Z,4.60
2023-03-22T05:19:02.732Z,4.47
2023-03-22T05:24:06.194Z,4.10
2023-03-22T05:29:11.468Z,4.90
2023-03-22T05:34:45.147Z,4.53
2023-03-22T05:40:04.048Z,4.37
2023-03-22T05:45:37.095Z,4.10
2023-03-22T05:50:50.401Z,4.40
2023-03-22T05:55:57.695Z,4.03
2023-03-22T06:01:16.305Z,3.37
2023-03-22T06:06:22.112Z,4.40
2023-03-22T06:11:37.478Z,6.70
2023-03-22T06:16:49.841Z,3.47
2023-03-22T06:21:53.397Z,4.03
2023-03-22T06:26:58.977Z,3.70
2023-03-22T06:32:09.216Z,20.90
2023-03-22T06:37:12.463Z,4.30
2023-03-22T06:42:17.969Z,3.47
2023-03-22T06:47:27.560Z,6.00
2023-03-22T06:52:49.824Z,3.20
2023-03-22T06:57:52.775Z,3.60
2023-03-22T07:02:57.491Z,3.00
2023-03-22T07:08:09.057Z,3.33
2023-03-22T07:13:19.238Z,4.50
2023-03-22T07:18:25.959Z,2.80
2023-03-22T07:23:28.826Z,2.83
2023-03-22T07:28:37.283Z,3.03
2023-03-22T07:33:46.255Z,3.57
2023-03-22T07:38:58.605Z,3.33
2023-03-22T07:44:17.194Z,2.83
2023-03-22T07:49:30.252Z,2.50
2023-03-22T07:54:34.443Z,2.70
2023-03-22T07:59:40.260Z,2.67
2023-03-22T08:04:49.045Z,2.90
2023-03-22T08:10:06.383Z,2.10
2023-03-22T08:15:14.089Z,2.00
2023-03-22T08:20:21.423Z,3.30
2023-03-22T08:25:31.269Z,2.37
2023-03-22T08:30:41.943Z,2.00
2023-03-22T08:35:46.411Z,2.70
2023-03-22T08:40:49.239Z,3.17
2023-03-22T08:45:56.458Z,2.63
2023-03-22T08:51:02.802Z,2.33
2023-03-22T08:56:17.813Z,2.53
2023-03-22T09:01:35.844Z,2.80
2023-03-22T09:06:44.149Z,2.17
2023-03-22T09:11:50.305Z,2.50
2023-03-22T09:16:53.137Z,2.30
2023-03-22T09:21:57.894Z,2.23
2023-03-22T09:27:08.939Z,1.80
2023-03-22T09:32:11.693Z,2.60
2023-03-22T09:37:20.414Z,2.60
2023-03-22T09:42:38.862Z,2.60
2023-03-22T09:47:50.040Z,2.40
2023-03-22T09:52:54.977Z,2.80
2023-03-22T09:58:05.789Z,2.03
2023-03-22T10:03:20.945Z,2.33
2023-03-22T10:08:39.907Z,2.70
2023-03-22T10:13:52.478Z,2.43
2023-03-22T10:19:04.142Z,2.40
2023-03-22T10:24:17.153Z,2.00
2023-03-22T10:29:28.121Z,2.90
2023-03-22T10:34:32.569Z,2.80
2023-03-22T10:39:40.969Z,2.27
2023-03-22T10:44:49.428Z,2.40
2023-03-22T10:55:58.622Z,1.60
2023-03-22T11:01:08.653Z,2.60
2023-03-22T11:06:14.461Z,2.30
2023-03-22T11:11:24.127Z,2.10
2023-03-22T11:16:27.123Z,1.80
2023-03-22T11:21:35.012Z,1.80
2023-03-22T11:26:41.422Z,1.80
2023-03-22T11:31:56.188Z,2.53
2023-03-22T11:37:01.459Z,2.17
2023-03-22T11:42:07.758Z,2.93
2023-03-22T11:47:14.254Z,1.87
2023-03-22T11:52:20.810Z,2.20
2023-03-22T11:57:29.782Z,2.53
2023-03-22T12:02:36.948Z,2.00
2023-03-22T12:07:46.874Z,3.20
2023-03-22T12:12:55.379Z,2.30
2023-03-22T12:18:06.018Z,2.20
2023-03-22T12:23:15.551Z,2.10
2023-03-22T12:28:23.436Z,1.87
2023-03-22T12:33:30.835Z,2.10
2023-03-22T12:38:44.638Z,2.20
2023-03-22T12:43:54.504Z,2.00
2023-03-22T12:49:04.421Z,1.90
2023-03-22T12:54:07.854Z,2.07
2023-03-22T12:59:19.036Z,2.30
2023-03-22T13:04:32.759Z,1.70
2023-03-22T13:09:43.830Z,1.83
2023-03-22T13:15:03.947Z,2.00
2023-03-22T13:20:28.510Z,2.80
2023-03-22T13:30:56.834Z,2.50
2023-03-22T13:36:05.885Z,2.70
2023-03-22T13:41:22.249Z,1.73
2023-03-22T13:46:48.556Z,2.30
2023-03-22T13:51:52.467Z,1.30
2023-03-22T13:56:59.510Z,1.97
2023-03-22T14:02:18.406Z,2.03
2023-03-22T14:07:41.517Z,2.17
2023-03-22T14:12:52.685Z,2.33
2023-03-22T14:18:02.073Z,1.60
